createdAt,value
2022-10-16T00:01:14.398Z,100491.56
2022-10-16T00:03:42.107Z,100486.25
2022-10-16T00:06:09.769Z,100490.66
2022-10-16T00:08:36.771Z,100487.16
2022-10-16T00:11:11.732Z,100489.75
2022-10-16T00:13:40.109Z,100487.09
2022-10-16T00:16:09.097Z,100479.16
2022-10-16T00:18:36.101Z,100497.75
2022-10-16T00:21:04.839Z,100498.66
2022-10-16T00:23:32.245Z,100501.31
2022-10-16T00:26:00.650Z,100491.56
2022-10-16T00:28:27.546Z,100497.78
2022-10-16T00:30:54.960Z,100505.75
2022-10-16T00:33:21.965Z,100494.25
2022-10-16T00:35:49.149Z,100491.59
2022-10-16T00:38:16.126Z,100498.66
2022-10-16T00:40:43.088Z,100491.56
2022-10-16T00:43:14.409Z,100496.00
2022-10-16T00:45:41.454Z,100492.47
2022-10-16T00:48:12.269Z,100493.34
2022-10-16T00:50:39.909Z,100488.91
2022-10-16T00:53:06.592Z,100487.16
2022-10-16T00:55:33.128Z,100480.94
2022-10-16T00:57:59.992Z,100474.72
2022-10-16T01:00:27.748Z,100477.41
2022-10-16T01:03:01.399Z,100480.06
2022-10-16T01:05:34.291Z,100481.81
2022-10-16T01:08:15.006Z,100480.03
2022-10-16T01:11:04.588Z,100486.25
2022-10-16T01:13:38.385Z,100489.81
2022-10-16T01:16:15.236Z,100491.56
2022-10-16T01:18:48.390Z,100493.34
2022-10-16T01:21:37.466Z,100504.84
2022-10-16T01:24:21.992Z,100504.00
2022-10-16T01:27:09.969Z,100496.00
2022-10-16T01:30:06.940Z,100495.09
2022-10-16T01:32:59.739Z,100505.72
2022-10-16T01:35:28.541Z,100501.31
2022-10-16T01:38:03.699Z,100497.78
2022-10-16T01:40:30.239Z,100493.31
2022-10-16T01:43:04.317Z,100487.06
2022-10-16T01:45:32.517Z,100490.63
2022-10-16T01:48:01.632Z,100494.09
2022-10-16T01:50:28.574Z,100491.47
2022-10-16T01:52:56.203Z,100492.28
2022-10-16T01:55:31.106Z,100496.75
2022-10-16T01:57:59.447Z,100489.59
2022-10-16T02:00:26.440Z,100493.16
2022-10-16T02:02:54.794Z,100495.81
2022-10-16T02:05:45.077Z,100502.06
2022-10-16T02:08:11.869Z,100494.19
2022-10-16T02:10:39.350Z,100503.94
2022-10-16T02:13:32.381Z,100504.88
2022-10-16T02:15:59.224Z,100502.25
2022-10-16T02:18:30.087Z,100504.84
2022-10-16T02:21:20.284Z,100506.56
2022-10-16T02:24:25.389Z,100515.50
2022-10-16T02:27:10.254Z,100514.56
2022-10-16T02:29:40.669Z,100516.38
2022-10-16T02:32:08.379Z,100516.34
2022-10-16T02:34:35.363Z,100514.56
2022-10-16T02:37:03.164Z,100519.03
2022-10-16T02:39:30.144Z,100521.72
2022-10-16T02:41:56.771Z,100510.13
2022-10-16T02:44:23.392Z,100524.38
2022-10-16T02:46:49.926Z,100514.59
2022-10-16T02:49:16.545Z,100508.38
2022-10-16T02:51:43.172Z,100510.16
2022-10-16T02:54:09.835Z,100506.56
2022-10-16T02:56:36.457Z,100505.72
2022-10-16T02:59:03.200Z,100507.34
2022-10-16T03:01:30.420Z,100513.66
2022-10-16T03:03:57.009Z,100519.84
2022-10-16T03:06:24.501Z,100522.53
2022-10-16T03:08:51.090Z,100517.16
2022-10-16T03:11:17.632Z,100513.59
2022-10-16T03:13:44.261Z,100511.84
2022-10-16T03:16:11.048Z,100518.94
2022-10-16T03:18:37.663Z,100516.25
2022-10-16T03:21:04.340Z,100515.38
2022-10-16T03:26:02.514Z,100514.47
2022-10-16T03:28:29.090Z,100507.44
2022-10-16T03:30:55.715Z,100515.47
2022-10-16T03:33:22.299Z,100510.06
2022-10-16T03:35:54.261Z,100513.59
2022-10-16T03:38:21.838Z,100511.91
2022-10-16T03:40:48.681Z,100514.59
2022-10-16T03:45:46.700Z,100533.22
2022-10-16T03:48:13.287Z,100527.03
2022-10-16T03:50:39.907Z,100520.84
2022-10-16T03:53:06.444Z,100527.03
2022-10-16T03:55:33.083Z,100532.38
2022-10-16T03:57:59.742Z,100535.03
2022-10-16T04:00:26.349Z,100527.94
2022-10-16T04:02:52.957Z,100527.03
2022-10-16T04:05:19.608Z,100527.06
2022-10-16T04:07:46.183Z,100529.69
2022-10-16T04:10:12.745Z,100535.03
2022-10-16T04:12:39.372Z,100543.00
2022-10-16T04:15:06.281Z,100548.34
2022-10-16T04:17:32.915Z,100542.97
2022-10-16T04:19:59.519Z,100545.69
2022-10-16T04:22:51.273Z,100547.44
2022-10-16T04:25:17.946Z,100555.38
2022-10-16T04:27:46.092Z,100552.75
2022-10-16T04:30:13.296Z,100561.63
2022-10-16T04:32:40.117Z,100566.97
2022-10-16T04:35:07.477Z,100567.00
2022-10-16T04:37:34.176Z,100567.00
2022-10-16T04:40:00.751Z,100582.03
2022-10-16T04:42:27.563Z,100579.38
2022-10-16T04:44:57.307Z,100569.63
2022-10-16T04:47:24.146Z,100567.84
2022-10-16T04:49:51.043Z,100582.94
2022-10-16T04:52:18.258Z,100575.84
2022-10-16T04:54:46.186Z,100582.06
2022-10-16T04:57:13.015Z,100579.38
2022-10-16T04:59:39.745Z,100591.78
2022-10-16T05:02:06.884Z,100599.78
2022-10-16T05:04:33.593Z,100598.91
2022-10-16T05:07:00.428Z,100604.22
2022-10-16T05:09:27.090Z,100605.09
2022-10-16T05:11:53.746Z,100602.44
2022-10-16T05:14:20.724Z,100606.88
2022-10-16T05:16:48.992Z,100599.78
2022-10-16T05:19:27.213Z,100605.16
2022-10-16T05:21:54.849Z,100622.88
2022-10-16T05:24:21.649Z,100616.69
2022-10-16T05:26:48.758Z,100618.44
2022-10-16T05:29:15.680Z,100611.34
2022-10-16T05:31:42.518Z,100614.00
2022-10-16T05:34:09.366Z,100629.97
2022-10-16T05:36:36.121Z,100623.78
2022-10-16T05:39:03.430Z,100621.94
2022-10-16T05:41:30.157Z,100617.56
2022-10-16T05:43:56.886Z,100637.94
2022-10-16T05:46:23.745Z,100625.53
2022-10-16T05:48:53.072Z,100627.31
2022-10-16T05:51:19.809Z,100640.63
2022-10-16T05:53:46.571Z,100645.06
2022-10-16T05:56:16.001Z,100653.03
2022-10-16T05:58:43.209Z,100661.03
2022-10-16T06:01:21.930Z,100648.63
2022-10-16T06:03:48.898Z,100656.59
2022-10-16T06:06:17.794Z,100665.41
2022-10-16T06:08:46.481Z,100664.53
2022-10-16T06:11:16.152Z,100665.38
2022-10-16T06:13:43.576Z,100664.53
2022-10-16T06:16:11.424Z,100671.63
2022-10-16T06:18:38.437Z,100674.34
2022-10-16T06:21:14.695Z,100679.66
2022-10-16T06:23:41.453Z,100683.19
2022-10-16T06:26:13.268Z,100667.22
2022-10-16T06:28:40.472Z,100676.09
2022-10-16T06:31:08.623Z,100682.31
2022-10-16T06:33:36.256Z,100689.44
2022-10-16T06:36:14.087Z,100682.31
2022-10-16T06:38:41.099Z,100689.38
2022-10-16T06:41:08.437Z,100688.53
2022-10-16T06:43:37.974Z,100697.41
2022-10-16T06:46:06.464Z,100701.88
2022-10-16T06:48:33.219Z,100709.84
2022-10-16T06:51:01.298Z,100722.28
2022-10-16T06:53:31.369Z,100725.75
2022-10-16T06:56:14.087Z,100740.00
2022-10-16T06:58:41.655Z,100737.31
2022-10-16T07:01:08.885Z,100738.25
2022-10-16T07:03:38.385Z,100747.06
2022-10-16T07:06:06.357Z,100761.31
2022-10-16T07:08:37.085Z,100758.59
2022-10-16T07:11:05.935Z,100763.09
2022-10-16T07:13:36.546Z,100766.56
2022-10-16T07:16:14.473Z,100777.19
2022-10-16T07:18:43.503Z,100778.06
2022-10-16T07:21:16.130Z,100778.06
2022-10-16T07:23:43.125Z,100776.31
2022-10-16T07:26:10.875Z,100779.88
2022-10-16T07:28:38.745Z,100779.84
2022-10-16T07:31:08.110Z,100795.81
2022-10-16T07:33:36.105Z,100790.50
2022-10-16T07:36:02.972Z,100791.41
2022-10-16T07:38:29.630Z,100795.81
2022-10-16T07:41:01.460Z,100798.56
2022-10-16T07:43:28.529Z,100806.59
2022-10-16T07:45:57.520Z,100815.50
2022-10-16T07:48:29.047Z,100808.41
2022-10-16T07:51:00.528Z,100816.41
2022-10-16T07:53:28.028Z,100821.72
2022-10-16T07:56:04.955Z,100820.81
2022-10-16T07:58:31.903Z,100827.03
2022-10-16T08:00:59.203Z,100824.41
2022-10-16T08:03:26.383Z,100829.69
2022-10-16T08:05:53.259Z,100821.72
2022-10-16T08:08:21.146Z,100828.84
2022-10-16T08:10:47.750Z,100835.06
2022-10-16T08:13:16.311Z,100838.59
2022-10-16T08:15:46.876Z,100846.59
2022-10-16T08:18:14.880Z,100849.28
2022-10-16T08:20:42.570Z,100860.81
2022-10-16T08:23:12.004Z,100862.59
2022-10-16T08:25:39.155Z,100856.38
2022-10-16T08:28:07.228Z,100863.50
2022-10-16T08:30:34.486Z,100867.94
2022-10-16T08:33:01.462Z,100871.47
2022-10-16T08:35:28.168Z,100869.72
2022-10-16T08:37:54.794Z,100880.34
2022-10-16T08:43:22.099Z,100891.91
2022-10-16T08:46:15.072Z,100895.47
2022-10-16T08:48:48.054Z,100906.16
2022-10-16T08:51:40.250Z,100900.81
2022-10-16T08:54:35.882Z,100907.94
2022-10-16T08:57:23.161Z,100918.59
2022-10-16T08:59:51.600Z,100916.81
2022-10-16T09:02:25.487Z,100924.78
2022-10-16T09:05:29.503Z,100915.06
2022-10-16T09:11:01.447Z,100928.34
2022-10-16T09:13:41.601Z,100926.53
2022-10-16T09:16:19.823Z,100928.31
2022-10-16T09:18:57.991Z,100933.63
2022-10-16T09:21:27.693Z,100929.16
2022-10-16T09:23:55.733Z,100938.06
2022-10-16T09:28:53.467Z,100930.94
2022-10-16T09:31:22.956Z,100928.28
2022-10-16T09:33:54.168Z,100935.44
2022-10-16T09:36:22.071Z,100939.84
2022-10-16T09:38:50.664Z,100937.19
2022-10-16T09:41:22.327Z,100936.22
2022-10-16T09:44:00.583Z,100927.22
2022-10-16T09:46:29.999Z,100930.78
2022-10-16T09:49:19.641Z,100923.66
2022-10-16T09:51:46.361Z,100935.19
2022-10-16T09:54:21.311Z,100926.31
2022-10-16T09:56:53.068Z,100936.09
2022-10-16T09:59:21.852Z,100941.38
2022-10-16T10:01:50.727Z,100943.28
2022-10-16T10:04:27.309Z,100945.00
2022-10-16T10:06:56.223Z,100940.50
2022-10-16T10:09:41.770Z,100952.09
2022-10-16T10:12:19.724Z,100939.59
2022-10-16T10:14:53.161Z,100944.84
2022-10-16T10:17:29.728Z,100944.88
2022-10-16T10:20:04.290Z,100941.25
2022-10-16T10:22:46.914Z,100942.84
2022-10-16T10:25:13.564Z,100950.72
2022-10-16T10:27:52.390Z,100960.44
2022-10-16T10:30:40.208Z,100964.00
2022-10-16T10:33:20.673Z,100945.22
2022-10-16T10:36:02.390Z,100956.75
2022-10-16T10:38:42.347Z,100959.34
2022-10-16T10:41:15.220Z,100962.09
2022-10-16T10:44:00.674Z,100959.09
2022-10-16T10:46:40.916Z,100959.22
2022-10-16T10:49:51.113Z,100961.69
2022-10-16T10:52:46.046Z,100960.88
2022-10-16T10:55:28.667Z,100968.88
2022-10-16T10:58:14.150Z,100963.53
2022-10-16T11:00:53.031Z,100961.88
2022-10-16T11:03:44.158Z,100968.84
2022-10-16T11:06:18.849Z,100962.88
2022-10-16T11:08:56.353Z,100961.13
2022-10-16T11:11:50.764Z,100964.63
2022-10-16T11:14:24.981Z,100962.44
2022-10-16T11:17:10.197Z,100961.22
2022-10-16T11:19:41.020Z,100963.16
2022-10-16T11:22:31.346Z,100963.09
2022-10-16T11:25:12.788Z,100968.72
2022-10-16T11:28:00.835Z,100973.66
2022-10-16T11:30:31.401Z,100973.88
2022-10-16T11:33:26.126Z,100984.28
2022-10-16T11:36:04.304Z,100978.88
2022-10-16T11:38:52.276Z,100976.72
2022-10-16T11:41:21.648Z,100968.97
2022-10-16T11:44:10.792Z,100970.53
2022-10-16T11:46:52.672Z,100968.69
2022-10-16T11:49:28.284Z,100974.19
2022-10-16T11:52:25.973Z,100982.38
2022-10-16T11:54:52.656Z,100980.09
2022-10-16T11:57:23.427Z,100986.44
2022-10-16T11:59:59.875Z,100984.00
2022-10-16T12:02:38.650Z,101001.53
2022-10-16T12:05:17.722Z,100996.41
2022-10-16T12:08:01.789Z,100984.59
2022-10-16T12:10:33.047Z,100989.22
2022-10-16T12:12:59.886Z,100983.34
2022-10-16T12:15:54.137Z,100990.28
2022-10-16T12:18:26.163Z,100996.63
2022-10-16T12:21:00.473Z,101000.31
2022-10-16T12:23:27.490Z,100996.56
2022-10-16T12:25:59.575Z,100980.84
2022-10-16T12:28:40.203Z,100985.50
2022-10-16T12:31:10.974Z,100985.44
2022-10-16T12:33:43.838Z,100990.81
2022-10-16T12:36:28.149Z,100990.88
2022-10-16T12:38:55.372Z,100991.59
2022-10-16T12:41:35.844Z,101003.03
2022-10-16T12:44:03.237Z,101004.94
2022-10-16T12:46:29.939Z,101002.97
2022-10-16T12:49:30.168Z,101003.22
2022-10-16T12:51:57.630Z,101005.97
2022-10-16T12:54:39.092Z,101005.88
2022-10-16T12:57:38.929Z,101006.72
2022-10-16T13:00:13.261Z,101016.59
2022-10-16T13:03:00.628Z,101004.91
2022-10-16T13:06:24.154Z,101000.28
2022-10-16T13:09:08.130Z,100996.84
2022-10-16T13:12:10.387Z,100996.94
2022-10-16T13:15:25.420Z,100997.78
2022-10-16T13:18:32.039Z,101006.78
2022-10-16T13:21:14.977Z,101009.19
2022-10-16T13:23:53.746Z,101008.50
2022-10-16T13:26:58.801Z,101006.78
2022-10-16T13:29:33.952Z,101019.41
2022-10-16T13:32:10.316Z,101026.38
2022-10-16T13:34:49.740Z,101025.34
2022-10-16T13:37:25.835Z,101022.44
2022-10-16T13:47:07.546Z,101016.78
2022-10-16T13:49:34.463Z,101016.66
2022-10-16T13:52:01.517Z,101004.63
2022-10-16T13:54:39.942Z,101003.91
2022-10-16T13:57:26.175Z,101000.63
2022-10-16T13:59:56.133Z,101003.00
2022-10-16T14:02:54.631Z,101001.25
2022-10-16T14:05:21.579Z,101014.97
2022-10-16T14:14:51.146Z,101027.81
2022-10-16T14:17:30.091Z,101039.28
2022-10-16T14:20:12.031Z,101037.97
2022-10-16T14:22:53.664Z,101022.22
2022-10-16T14:25:32.152Z,101006.97
2022-10-16T14:28:26.554Z,100992.69
2022-10-16T14:31:08.665Z,101016.19
2022-10-16T14:33:44.207Z,101026.16
2022-10-16T14:36:19.311Z,101020.75
2022-10-16T14:39:10.583Z,101033.94
2022-10-16T14:41:56.965Z,101035.78
2022-10-16T14:44:31.340Z,101020.56
2022-10-16T14:47:10.892Z,101007.19
2022-10-16T14:49:42.876Z,101021.44
2022-10-16T14:52:17.890Z,101025.06
2022-10-16T14:54:55.626Z,101033.94
2022-10-16T14:57:36.764Z,101026.78
2022-10-16T15:00:04.938Z,101027.56
2022-10-16T15:02:34.331Z,101028.59
2022-10-16T15:05:24.630Z,101021.59
2022-10-16T15:07:52.155Z,101022.41
2022-10-16T15:10:19.134Z,101018.06
2022-10-16T15:12:46.055Z,101019.78
2022-10-16T15:15:26.421Z,101008.22
2022-10-16T15:17:56.746Z,101002.63
2022-10-16T15:20:25.324Z,101001.00
2022-10-16T15:22:52.233Z,101005.38
2022-10-16T15:25:33.235Z,101006.22
2022-10-16T15:28:03.651Z,101001.94
2022-10-16T15:30:30.854Z,100998.34
2022-10-16T15:32:57.817Z,100989.38
2022-10-16T15:35:27.213Z,100983.25
2022-10-16T15:38:05.713Z,100990.63
2022-10-16T15:40:32.675Z,100987.75
2022-10-16T15:43:01.546Z,100977.09
2022-10-16T15:45:28.761Z,100985.84
2022-10-16T15:48:04.138Z,100985.38
2022-10-16T15:50:33.740Z,100980.91
2022-10-16T15:53:07.900Z,100985.47
2022-10-16T15:55:49.088Z,101003.38
2022-10-16T15:58:20.892Z,100990.91
2022-10-16T16:02:10.676Z,100990.09
2022-10-16T16:04:43.826Z,100974.06
2022-10-16T16:07:11.877Z,100976.72
2022-10-16T16:10:01.422Z,100981.44
2022-10-16T16:12:55.824Z,100979.66
2022-10-16T16:15:30.617Z,100985.59
2022-10-16T16:18:18.402Z,100986.34
2022-10-16T16:20:45.335Z,100988.38
2022-10-16T16:23:12.185Z,100991.13
2022-10-16T16:25:38.984Z,100987.69
2022-10-16T16:28:05.918Z,100990.22
2022-10-16T16:30:32.767Z,100985.91
2022-10-16T16:33:06.115Z,100992.03
2022-10-16T16:35:32.904Z,100992.50
2022-10-16T16:38:00.114Z,100996.09
2022-10-16T16:40:27.899Z,101005.03
2022-10-16T16:42:54.875Z,101007.78
2022-10-16T16:45:37.275Z,101010.41
2022-10-16T16:48:04.104Z,101005.09
2022-10-16T16:50:33.554Z,101007.97
2022-10-16T16:53:00.476Z,101017.78
2022-10-16T16:55:27.386Z,101016.91
2022-10-16T16:57:54.599Z,101028.44
2022-10-16T17:00:21.421Z,101031.19
2022-10-16T17:02:51.436Z,101032.97
2022-10-16T17:05:19.973Z,101029.38
2022-10-16T17:07:46.908Z,101024.00
2022-10-16T17:10:13.746Z,101015.16
2022-10-16T17:12:44.968Z,101024.09
2022-10-16T17:15:11.974Z,101016.09
2022-10-16T17:17:41.874Z,101029.41
2022-10-16T17:20:20.175Z,101036.53
2022-10-16T17:22:52.251Z,101034.63
2022-10-16T17:25:19.215Z,101044.63
2022-10-16T17:27:48.228Z,101041.81
2022-10-16T17:30:15.033Z,101043.72
2022-10-16T17:32:41.888Z,101046.34
2022-10-16T17:35:08.992Z,101035.66
2022-10-16T17:37:35.874Z,101036.53
2022-10-16T17:40:02.695Z,101031.25
2022-10-16T17:42:29.752Z,101041.03
2022-10-16T17:44:56.624Z,101038.34
2022-10-16T17:47:23.911Z,101030.31
2022-10-16T17:49:51.317Z,101033.06
2022-10-16T17:52:20.461Z,101042.78
2022-10-16T17:54:47.160Z,101040.19
2022-10-16T17:57:13.984Z,101033.06
2022-10-16T17:59:55.510Z,101038.53
2022-10-16T18:02:23.305Z,101037.66
2022-10-16T18:04:50.403Z,101043.84
2022-10-16T18:07:17.128Z,101035.84
2022-10-16T18:10:09.977Z,101033.09
2022-10-16T18:12:50.725Z,101040.13
2022-10-16T18:15:17.892Z,101041.97
2022-10-16T18:17:44.707Z,101041.00
2022-10-16T18:20:16.666Z,101025.84
2022-10-16T18:22:43.671Z,101025.00
2022-10-16T18:25:10.689Z,101031.28
2022-10-16T18:27:50.275Z,101042.88
2022-10-16T18:30:30.774Z,101035.69
2022-10-16T18:32:59.824Z,101027.69
2022-10-16T18:35:26.630Z,101029.44
2022-10-16T18:37:56.023Z,101028.63
2022-10-16T18:40:22.762Z,101044.53
2022-10-16T18:42:51.480Z,101041.84
2022-10-16T18:45:18.314Z,101048.06
2022-10-16T18:47:45.292Z,101045.47
2022-10-16T18:50:12.485Z,101053.50
2022-10-16T18:52:40.101Z,101072.25
2022-10-16T18:55:09.216Z,101078.50
2022-10-16T18:57:36.281Z,101087.44
2022-10-16T19:00:03.061Z,101099.91
2022-10-16T19:02:29.809Z,101121.25
2022-10-16T19:04:56.575Z,101134.66
2022-10-16T19:07:23.427Z,101140.91
2022-10-16T19:09:50.103Z,101125.75
2022-10-16T19:12:17.170Z,101146.25
2022-10-16T19:14:45.512Z,101120.38
2022-10-16T19:17:12.357Z,101098.13
2022-10-16T19:19:39.266Z,101098.13
2022-10-16T19:22:14.110Z,101107.91
2022-10-16T19:24:41.294Z,101111.47
2022-10-16T19:27:08.341Z,101110.59
2022-10-16T19:29:35.329Z,101114.22
2022-10-16T19:32:05.076Z,101115.13
2022-10-16T19:34:34.531Z,101122.22
2022-10-16T19:37:01.345Z,101123.13
2022-10-16T19:39:28.155Z,101120.47
2022-10-16T19:41:54.894Z,101132.06
2022-10-16T19:44:21.651Z,101123.13
2022-10-16T19:46:49.069Z,101131.13
2022-10-16T19:49:26.314Z,101124.00
2022-10-16T19:51:54.501Z,101115.13
2022-10-16T19:54:21.499Z,101114.22
2022-10-16T19:56:48.165Z,101117.75
2022-10-16T19:59:19.070Z,101118.63
2022-10-16T20:01:57.776Z,101114.16
2022-10-16T20:04:24.828Z,101115.97
2022-10-16T20:06:51.677Z,101110.50
2022-10-16T20:09:18.387Z,101109.66
2022-10-16T20:11:45.185Z,101101.69
2022-10-16T20:14:11.955Z,101103.47
2022-10-16T20:16:47.182Z,101102.59
2022-10-16T20:19:25.183Z,101112.38
2022-10-16T20:21:54.388Z,101111.47
2022-10-16T20:24:24.625Z,101115.94
2022-10-16T20:26:54.720Z,101111.50
2022-10-16T20:29:25.004Z,101110.69
2022-10-16T20:31:59.313Z,101111.50
2022-10-16T20:34:26.102Z,101113.34
2022-10-16T20:37:06.753Z,101112.44
2022-10-16T20:39:33.637Z,101110.63
2022-10-16T20:42:00.463Z,101115.00
2022-10-16T20:44:30.379Z,101107.97
2022-10-16T20:46:57.463Z,101105.25
2022-10-16T20:49:39.307Z,101113.25
2022-10-16T20:52:06.881Z,101104.38
2022-10-16T20:54:36.680Z,101108.84
2022-10-16T20:57:07.147Z,101108.84
2022-10-16T20:59:54.489Z,101107.09
2022-10-16T21:02:50.383Z,101099.97
2022-10-16T21:05:17.519Z,101090.19
2022-10-16T21:07:44.363Z,101091.97
2022-10-16T21:10:11.199Z,101099.97
2022-10-16T21:12:37.857Z,101095.50
2022-10-16T21:15:20.221Z,101101.75
2022-10-16T21:17:47.293Z,101101.75
2022-10-16T21:20:14.064Z,101089.28
2022-10-16T21:22:40.722Z,101094.66
2022-10-16T21:25:07.900Z,101099.09
2022-10-16T21:27:39.012Z,101102.66
2022-10-16T21:30:07.610Z,101095.53
2022-10-16T21:32:38.385Z,101097.28
2022-10-16T21:35:06.093Z,101092.88
2022-10-16T21:37:33.227Z,101089.28
2022-10-16T21:39:59.967Z,101093.75
2022-10-16T21:42:27.001Z,101087.53
2022-10-16T21:44:54.173Z,101087.50
2022-10-16T21:47:20.939Z,101086.63
2022-10-16T21:49:47.577Z,101088.41
2022-10-16T21:52:14.338Z,101083.06
2022-10-16T21:54:41.003Z,101081.28
2022-10-16T21:57:07.652Z,101087.50
2022-10-16T21:59:34.458Z,101081.28
2022-10-16T22:02:03.143Z,101079.47
2022-10-16T22:04:30.188Z,101082.19
2022-10-16T22:06:56.879Z,101083.94
2022-10-16T22:09:23.524Z,101079.47
2022-10-16T22:11:51.091Z,101074.16
2022-10-16T22:14:19.624Z,101070.56
2022-10-16T22:16:50.078Z,101066.09
2022-10-16T22:19:19.768Z,101070.56
2022-10-16T22:21:47.648Z,101078.50
2022-10-16T22:24:16.395Z,101074.09
2022-10-16T22:26:43.884Z,101069.59
2022-10-16T22:29:14.561Z,101073.13
2022-10-16T22:31:42.380Z,101074.09
2022-10-16T22:34:12.428Z,101075.84
2022-10-16T22:36:39.530Z,101073.25
2022-10-16T22:39:06.432Z,101066.09
2022-10-16T22:41:33.099Z,101068.75
2022-10-16T22:43:59.795Z,101061.69
2022-10-16T22:46:29.143Z,101065.22
2022-10-16T22:48:57.987Z,101074.13
2022-10-16T22:51:26.543Z,101074.13
2022-10-16T22:53:53.124Z,101069.66
2022-10-16T22:56:21.475Z,101072.38
2022-10-16T22:58:49.671Z,101074.13
2022-10-16T23:01:22.053Z,101072.38
2022-10-16T23:03:49.005Z,101081.25
2022-10-16T23:06:15.798Z,101076.78
2022-10-16T23:08:45.183Z,101080.38
2022-10-16T23:11:12.702Z,101079.47
2022-10-16T23:13:43.588Z,101077.72
2022-10-16T23:16:12.523Z,101080.31
2022-10-16T23:18:39.867Z,101080.34
2022-10-16T23:21:08.004Z,101083.03
2022-10-16T23:23:36.129Z,101087.44
2022-10-16T23:26:03.969Z,101091.91
2022-10-16T23:28:32.227Z,101090.09
2022-10-16T23:30:59.241Z,101078.53
2022-10-16T23:33:25.911Z,101081.16
2022-10-16T23:35:52.560Z,101083.00
2022-10-16T23:38:19.344Z,101082.06
2022-10-16T23:40:45.999Z,101075.84
2022-10-16T23:43:12.686Z,101084.81
2022-10-16T23:45:39.381Z,101091.75
2022-10-16T23:48:06.052Z,101090.94
2022-10-16T23:50:32.714Z,101083.03
2022-10-16T23:52:59.565Z,101085.72
2022-10-16T23:55:26.335Z,101083.03
2022-10-16T23:57:52.995Z,101081.28
